sensor_id;sensor_type;location;lat;lon;timestamp;P1;durP1;ratioP1;P2;durP2;ratioP2
67867;SDS011;54672;46.096;14.470;2023-05-07T00:00:46;10.85;;;6.53;;
67867;SDS011;54672;46.096;14.470;2023-05-07T00:03:12;11.85;;;6.93;;
67867;SDS011;54672;46.096;14.470;2023-05-07T00:05:38;12.43;;;5.97;;
67867;SDS011;54672;46.096;14.470;2023-05-07T00:08:04;10.93;;;6.20;;
67867;SDS011;54672;46.096;14.470;2023-05-07T00:10:29;10.25;;;6.47;;
67867;SDS011;54672;46.096;14.470;2023-05-07T00:12:55;10.48;;;6.00;;
67867;SDS011;54672;46.096;14.470;2023-05-07T00:15:20;9.27;;;5.75;;
67867;SDS011;54672;46.096;14.470;2023-05-07T00:17:46;9.70;;;6.10;;
67867;SDS011;54672;46.096;14.470;2023-05-07T00:20:11;9.25;;;5.75;;
67867;SDS011;54672;46.096;14.470;2023-05-07T00:22:37;9.85;;;5.75;;
67867;SDS011;54672;46.096;14.470;2023-05-07T00:25:02;7.90;;;5.22;;
67867;SDS011;54672;46.096;14.470;2023-05-07T00:27:28;8.25;;;5.57;;
67867;SDS011;54672;46.096;14.470;2023-05-07T00:29:53;9.63;;;5.90;;
67867;SDS011;54672;46.096;14.470;2023-05-07T00:32:19;9.68;;;5.70;;
67867;SDS011;54672;46.096;14.470;2023-05-07T00:34:44;11.43;;;6.10;;
67867;SDS011;54672;46.096;14.470;2023-05-07T00:37:09;9.13;;;5.45;;
67867;SDS011;54672;46.096;14.470;2023-05-07T00:39:36;9.85;;;6.10;;
67867;SDS011;54672;46.096;14.470;2023-05-07T00:42:02;10.93;;;6.10;;
67867;SDS011;54672;46.096;14.470;2023-05-07T00:44:28;10.13;;;6.18;;
67867;SDS011;54672;46.096;14.470;2023-05-07T00:46:53;11.20;;;6.05;;
67867;SDS011;54672;46.096;14.470;2023-05-07T00:49:19;11.95;;;6.68;;
67867;SDS011;54672;46.096;14.470;2023-05-07T00:51:45;11.95;;;6.93;;
67867;SDS011;54672;46.096;14.470;2023-05-07T00:54:11;10.85;;;6.68;;
67867;SDS011;54672;46.096;14.470;2023-05-07T00:56:38;10.73;;;6.25;;
67867;SDS011;54672;46.096;14.470;2023-05-07T00:59:04;10.48;;;5.85;;
67867;SDS011;54672;46.096;14.470;2023-05-07T01:01:31;10.07;;;5.90;;
67867;SDS011;54672;46.096;14.470;2023-05-07T01:03:56;9.05;;;5.90;;
67867;SDS011;54672;46.096;14.470;2023-05-07T01:06:23;9.30;;;5.65;;
67867;SDS011;54672;46.096;14.470;2023-05-07T01:08:49;10.35;;;5.82;;
67867;SDS011;54672;46.096;14.470;2023-05-07T01:11:17;10.77;;;5.97;;
67867;SDS011;54672;46.096;14.470;2023-05-07T01:13:45;10.55;;;6.47;;
67867;SDS011;54672;46.096;14.470;2023-05-07T01:16:11;8.57;;;5.97;;
67867;SDS011;54672;46.096;14.470;2023-05-07T01:18:37;10.32;;;6.45;;
67867;SDS011;54672;46.096;14.470;2023-05-07T01:21:03;13.85;;;7.40;;
67867;SDS011;54672;46.096;14.470;2023-05-07T01:23:29;12.30;;;6.72;;
67867;SDS011;54672;46.096;14.470;2023-05-07T01:25:55;11.00;;;6.82;;
67867;SDS011;54672;46.096;14.470;2023-05-07T01:28:21;9.90;;;6.68;;
67867;SDS011;54672;46.096;14.470;2023-05-07T01:30:47;12.75;;;7.47;;
67867;SDS011;54672;46.096;14.470;2023-05-07T01:33:18;11.77;;;7.10;;
67867;SDS011;54672;46.096;14.470;2023-05-07T01:35:47;12.50;;;7.10;;
67867;SDS011;54672;46.096;14.470;2023-05-07T01:38:15;12.18;;;7.10;;
67867;SDS011;54672;46.096;14.470;2023-05-07T01:40:41;13.30;;;6.72;;
67867;SDS011;54672;46.096;14.470;2023-05-07T01:43:07;13.07;;;6.78;;
67867;SDS011;54672;46.096;14.470;2023-05-07T01:45:34;9.88;;;6.35;;
67867;SDS011;54672;46.096;14.470;2023-05-07T01:48:00;9.95;;;7.05;;
67867;SDS011;54672;46.096;14.470;2023-05-07T01:50:26;11.05;;;6.63;;
67867;SDS011;54672;46.096;14.470;2023-05-07T01:52:52;12.65;;;7.10;;
67867;SDS011;54672;46.096;14.470;2023-05-07T01:55:18;13.45;;;7.43;;
67867;SDS011;54672;46.096;14.470;2023-05-07T01:57:43;10.18;;;6.25;;
67867;SDS011;54672;46.096;14.470;2023-05-07T02:00:09;11.13;;;6.28;;
67867;SDS011;54672;46.096;14.470;2023-05-07T02:02:35;11.13;;;6.93;;
67867;SDS011;54672;46.096;14.470;2023-05-07T02:05:00;10.35;;;6.32;;
67867;SDS011;54672;46.096;14.470;2023-05-07T02:07:26;10.55;;;6.20;;
67867;SDS011;54672;46.096;14.470;2023-05-07T02:09:52;12.43;;;6.57;;
67867;SDS011;54672;46.096;14.470;2023-05-07T02:12:17;11.15;;;6.70;;
67867;SDS011;54672;46.096;14.470;2023-05-07T02:14:43;17.00;;;7.78;;
67867;SDS011;54672;46.096;14.470;2023-05-07T02:17:08;13.57;;;7.35;;
67867;SDS011;54672;46.096;14.470;2023-05-07T02:19:34;12.85;;;7.88;;
67867;SDS011;54672;46.096;14.470;2023-05-07T02:21:59;13.30;;;8.00;;
67867;SDS011;54672;46.096;14.470;2023-05-07T02:24:24;10.93;;;7.00;;
67867;SDS011;54672;46.096;14.470;2023-05-07T02:26:50;10.40;;;6.82;;
67867;SDS011;54672;46.096;14.470;2023-05-07T02:29:15;15.02;;;7.88;;
67867;SDS011;54672;46.096;14.470;2023-05-07T02:31:40;14.13;;;7.93;;
67867;SDS011;54672;46.096;14.470;2023-05-07T02:34:06;12.18;;;7.63;;
67867;SDS011;54672;46.096;14.470;2023-05-07T02:36:31;15.98;;;7.43;;
67867;SDS011;54672;46.096;14.470;2023-05-07T02:38:56;12.65;;;7.10;;
67867;SDS011;54672;46.096;14.470;2023-05-07T02:41:22;11.80;;;6.53;;
67867;SDS011;54672;46.096;14.470;2023-05-07T02:43:47;9.00;;;5.82;;
67867;SDS011;54672;46.096;14.470;2023-05-07T02:46:13;13.05;;;7.03;;
67867;SDS011;54672;46.096;14.470;2023-05-07T02:48:38;11.40;;;6.88;;
67867;SDS011;54672;46.096;14.470;2023-05-07T02:51:04;10.70;;;7.38;;
67867;SDS011;54672;46.096;14.470;2023-05-07T02:53:30;12.57;;;7.60;;
67867;SDS011;54672;46.096;14.470;2023-05-07T02:55:56;9.55;;;6.35;;
67867;SDS011;54672;46.096;14.470;2023-05-07T02:58:22;11.55;;;6.70;;
67867;SDS011;54672;46.096;14.470;2023-05-07T03:00:48;13.20;;;7.50;;
67867;SDS011;54672;46.096;14.470;2023-05-07T03:03:14;12.15;;;6.47;;
67867;SDS011;54672;46.096;14.470;2023-05-07T03:05:39;9.63;;;6.32;;
67867;SDS011;54672;46.096;14.470;2023-05-07T03:08:05;12.50;;;6.82;;
67867;SDS011;54672;46.096;14.470;2023-05-07T03:10:31;9.38;;;6.40;;
67867;SDS011;54672;46.096;14.470;2023-05-07T03:12:56;9.25;;;6.18;;
67867;SDS011;54672;46.096;14.470;2023-05-07T03:15:21;9.25;;;6.18;;
67867;SDS011;54672;46.096;14.470;2023-05-07T03:17:47;9.98;;;6.30;;
67867;SDS011;54672;46.096;14.470;2023-05-07T03:20:13;12.57;;;6.97;;
67867;SDS011;54672;46.096;14.470;2023-05-07T03:22:38;10.60;;;6.72;;
67867;SDS011;54672;46.096;14.470;2023-05-07T03:25:04;14.00;;;7.28;;
67867;SDS011;54672;46.096;14.470;2023-05-07T03:27:30;10.25;;;6.35;;
67867;SDS011;54672;46.096;14.470;2023-05-07T03:29:55;11.00;;;6.95;;
67867;SDS011;54672;46.096;14.470;2023-05-07T03:32:21;12.75;;;7.15;;
67867;SDS011;54672;46.096;14.470;2023-05-07T03:34:46;13.27;;;7.68;;
67867;SDS011;54672;46.096;14.470;2023-05-07T03:37:11;11.38;;;6.97;;
67867;SDS011;54672;46.096;14.470;2023-05-07T03:39:37;15.65;;;7.60;;
67867;SDS011;54672;46.096;14.470;2023-05-07T03:42:02;11.98;;;7.07;;
67867;SDS011;54672;46.096;14.470;2023-05-07T03:44:28;16.58;;;7.90;;
67867;SDS011;54672;46.096;14.470;2023-05-07T03:46:53;14.10;;;8.07;;
67867;SDS011;54672;46.096;14.470;2023-05-07T03:49:20;11.98;;;7.90;;
67867;SDS011;54672;46.096;14.470;2023-05-07T03:51:45;14.50;;;8.18;;
67867;SDS011;54672;46.096;14.470;2023-05-07T03:54:11;13.38;;;8.40;;
67867;SDS011;54672;46.096;14.470;2023-05-07T03:56:36;17.58;;;8.27;;
67867;SDS011;54672;46.096;14.470;2023-05-07T03:59:02;12.93;;;8.10;;
67867;SDS011;54672;46.096;14.470;2023-05-07T04:01:27;11.75;;;7.35;;
67867;SDS011;54672;46.096;14.470;2023-05-07T04:03:52;10.93;;;7.15;;
67867;SDS011;54672;46.096;14.470;2023-05-07T04:06:20;9.65;;;6.05;;
67867;SDS011;54672;46.096;14.470;2023-05-07T04:08:46;10.95;;;5.88;;
67867;SDS011;54672;46.096;14.470;2023-05-07T04:11:11;10.50;;;5.30;;
67867;SDS011;54672;46.096;14.470;2023-05-07T04:13:37;9.65;;;5.05;;
67867;SDS011;54672;46.096;14.470;2023-05-07T04:16:02;8.20;;;5.40;;
67867;SDS011;54672;46.096;14.470;2023-05-07T04:18:29;10.15;;;5.28;;
67867;SDS011;54672;46.096;14.470;2023-05-07T04:20:54;6.55;;;4.25;;
67867;SDS011;54672;46.096;14.470;2023-05-07T04:23:20;6.78;;;4.47;;
67867;SDS011;54672;46.096;14.470;2023-05-07T04:25:45;7.40;;;4.43;;
67867;SDS011;54672;46.096;14.470;2023-05-07T04:28:11;7.30;;;5.05;;
67867;SDS011;54672;46.096;14.470;2023-05-07T04:30:36;6.60;;;4.88;;
67867;SDS011;54672;46.096;14.470;2023-05-07T04:33:02;6.43;;;4.50;;
67867;SDS011;54672;46.096;14.470;2023-05-07T04:35:27;6.78;;;4.90;;
67867;SDS011;54672;46.096;14.470;2023-05-07T04:37:53;6.63;;;4.50;;
67867;SDS011;54672;46.096;14.470;2023-05-07T04:40:18;7.60;;;5.03;;
67867;SDS011;54672;46.096;14.470;2023-05-07T04:42:43;6.72;;;4.68;;
67867;SDS011;54672;46.096;14.470;2023-05-07T04:45:09;7.22;;;4.97;;
67867;SDS011;54672;46.096;14.470;2023-05-07T04:47:35;7.10;;;4.97;;
67867;SDS011;54672;46.096;14.470;2023-05-07T04:50:01;7.80;;;4.75;;
67867;SDS011;54672;46.096;14.470;2023-05-07T04:52:26;7.53;;;5.28;;
67867;SDS011;54672;46.096;14.470;2023-05-07T04:54:52;10.27;;;6.68;;
67867;SDS011;54672;46.096;14.470;2023-05-07T04:57:17;7.65;;;6.00;;
67867;SDS011;54672;46.096;14.470;2023-05-07T04:59:43;9.55;;;5.05;;
67867;SDS011;54672;46.096;14.470;2023-05-07T05:02:09;8.10;;;4.95;;
67867;SDS011;54672;46.096;14.470;2023-05-07T05:04:35;9.18;;;5.38;;
67867;SDS011;54672;46.096;14.470;2023-05-07T05:07:01;7.65;;;4.93;;
67867;SDS011;54672;46.096;14.470;2023-05-07T05:09:28;7.78;;;5.10;;
67867;SDS011;54672;46.096;14.470;2023-05-07T05:11:54;7.40;;;4.95;;
67867;SDS011;54672;46.096;14.470;2023-05-07T05:14:19;11.50;;;5.38;;
67867;SDS011;54672;46.096;14.470;2023-05-07T05:16:44;7.53;;;5.28;;
67867;SDS011;54672;46.096;14.470;2023-05-07T05:19:10;7.80;;;5.30;;
67867;SDS011;54672;46.096;14.470;2023-05-07T05:21:35;8.60;;;5.70;;
67867;SDS011;54672;46.096;14.470;2023-05-07T05:24:01;8.40;;;5.88;;
67867;SDS011;54672;46.096;14.470;2023-05-07T05:26:26;12.95;;;5.85;;
67867;SDS011;54672;46.096;14.470;2023-05-07T05:28:51;7.97;;;5.55;;
67867;SDS011;54672;46.096;14.470;2023-05-07T05:31:17;6.63;;;5.22;;
67867;SDS011;54672;46.096;14.470;2023-05-07T05:33:42;8.25;;;5.53;;
67867;SDS011;54672;46.096;14.470;2023-05-07T05:36:10;8.10;;;5.35;;
67867;SDS011;54672;46.096;14.470;2023-05-07T05:38:37;7.00;;;5.20;;
67867;SDS011;54672;46.096;14.470;2023-05-07T05:41:02;7.07;;;5.45;;
67867;SDS011;54672;46.096;14.470;2023-05-07T05:43:28;8.98;;;5.68;;
67867;SDS011;54672;46.096;14.470;2023-05-07T05:45:55;6.35;;;5.10;;
67867;SDS011;54672;46.096;14.470;2023-05-07T05:48:20;7.43;;;5.57;;
67867;SDS011;54672;46.096;14.470;2023-05-07T05:50:46;8.43;;;5.93;;
67867;SDS011;54672;46.096;14.470;2023-05-07T05:53:11;6.75;;;5.57;;
67867;SDS011;54672;46.096;14.470;2023-05-07T05:55:37;6.90;;;5.68;;
67867;SDS011;54672;46.096;14.470;2023-05-07T05:58:02;7.32;;;4.97;;
67867;SDS011;54672;46.096;14.470;2023-05-07T06:00:28;7.70;;;5.30;;
67867;SDS011;54672;46.096;14.470;2023-05-07T06:02:54;7.82;;;5.18;;
67867;SDS011;54672;46.096;14.470;2023-05-07T06:05:19;8.48;;;5.47;;
67867;SDS011;54672;46.096;14.470;2023-05-07T06:07:45;6.63;;;5.47;;
67867;SDS011;54672;46.096;14.470;2023-05-07T06:10:10;7.13;;;5.90;;
67867;SDS011;54672;46.096;14.470;2023-05-07T06:12:36;7.40;;;5.47;;
67867;SDS011;54672;46.096;14.470;2023-05-07T06:15:01;6.95;;;5.18;;
67867;SDS011;54672;46.096;14.470;2023-05-07T06:17:26;8.57;;;5.40;;
67867;SDS011;54672;46.096;14.470;2023-05-07T06:19:52;9.18;;;5.70;;
67867;SDS011;54672;46.096;14.470;2023-05-07T06:22:18;6.43;;;5.10;;
67867;SDS011;54672;46.096;14.470;2023-05-07T06:24:43;8.00;;;4.90;;
67867;SDS011;54672;46.096;14.470;2023-05-07T06:27:09;9.43;;;5.43;;
67867;SDS011;54672;46.096;14.470;2023-05-07T06:29:34;7.10;;;5.30;;
67867;SDS011;54672;46.096;14.470;2023-05-07T06:32:06;8.60;;;5.35;;
67867;SDS011;54672;46.096;14.470;2023-05-07T06:34:35;6.78;;;5.30;;
67867;SDS011;54672;46.096;14.470;2023-05-07T06:37:01;6.18;;;5.05;;
67867;SDS011;54672;46.096;14.470;2023-05-07T06:39:26;7.05;;;5.28;;
67867;SDS011;54672;46.096;14.470;2023-05-07T06:41:52;7.15;;;5.25;;
67867;SDS011;54672;46.096;14.470;2023-05-07T06:44:17;8.45;;;5.15;;
67867;SDS011;54672;46.096;14.470;2023-05-07T06:46:43;7.05;;;5.38;;
67867;SDS011;54672;46.096;14.470;2023-05-07T06:49:08;8.32;;;5.88;;
67867;SDS011;54672;46.096;14.470;2023-05-07T06:51:34;8.43;;;5.75;;
67867;SDS011;54672;46.096;14.470;2023-05-07T06:53:59;6.97;;;5.65;;
67867;SDS011;54672;46.096;14.470;2023-05-07T06:56:25;8.45;;;5.30;;
67867;SDS011;54672;46.096;14.470;2023-05-07T06:58:50;7.82;;;6.18;;
67867;SDS011;54672;46.096;14.470;2023-05-07T07:01:16;7.68;;;5.80;;
67867;SDS011;54672;46.096;14.470;2023-05-07T07:03:41;7.55;;;5.53;;
67867;SDS011;54672;46.096;14.470;2023-05-07T07:06:06;7.53;;;5.72;;
67867;SDS011;54672;46.096;14.470;2023-05-07T07:08:32;6.25;;;5.20;;
67867;SDS011;54672;46.096;14.470;2023-05-07T07:10:58;7.28;;;5.25;;
67867;SDS011;54672;46.096;14.470;2023-05-07T07:13:23;6.82;;;5.57;;
67867;SDS011;54672;46.096;14.470;2023-05-07T07:15:48;6.40;;;4.90;;
67867;SDS011;54672;46.096;14.470;2023-05-07T07:18:14;10.75;;;5.80;;
67867;SDS011;54672;46.096;14.470;2023-05-07T07:20:40;6.88;;;4.90;;
67867;SDS011;54672;46.096;14.470;2023-05-07T07:23:05;7.57;;;5.18;;
67867;SDS011;54672;46.096;14.470;2023-05-07T07:25:31;6.50;;;4.88;;
67867;SDS011;54672;46.096;14.470;2023-05-07T07:27:56;6.95;;;5.28;;
67867;SDS011;54672;46.096;14.470;2023-05-07T07:30:22;8.45;;;5.47;;
67867;SDS011;54672;46.096;14.470;2023-05-07T07:32:47;6.72;;;5.40;;
67867;SDS011;54672;46.096;14.470;2023-05-07T07:35:14;8.65;;;5.40;;
67867;SDS011;54672;46.096;14.470;2023-05-07T07:37:39;6.25;;;4.53;;
67867;SDS011;54672;46.096;14.470;2023-05-07T07:40:05;9.30;;;5.85;;
67867;SDS011;54672;46.096;14.470;2023-05-07T07:42:31;6.40;;;5.22;;
67867;SDS011;54672;46.096;14.470;2023-05-07T07:44:56;9.00;;;5.38;;
67867;SDS011;54672;46.096;14.470;2023-05-07T07:47:22;5.57;;;4.97;;
67867;SDS011;54672;46.096;14.470;2023-05-07T07:49:48;5.70;;;4.68;;
67867;SDS011;54672;46.096;14.470;2023-05-07T07:52:13;8.73;;;5.05;;
67867;SDS011;54672;46.096;14.470;2023-05-07T07:54:38;10.93;;;4.75;;
67867;SDS011;54672;46.096;14.470;2023-05-07T07:57:04;5.43;;;4.50;;
67867;SDS011;54672;46.096;14.470;2023-05-07T07:59:30;6.35;;;4.82;;
67867;SDS011;54672;46.096;14.470;2023-05-07T08:01:55;6.97;;;4.88;;
67867;SDS011;54672;46.096;14.470;2023-05-07T08:04:22;8.60;;;4.72;;
67867;SDS011;54672;46.096;14.470;2023-05-07T08:06:47;6.68;;;4.68;;
67867;SDS011;54672;46.096;14.470;2023-05-07T08:09:12;5.82;;;4.43;;
67867;SDS011;54672;46.096;14.470;2023-05-07T08:11:38;7.15;;;4.40;;
67867;SDS011;54672;46.096;14.470;2023-05-07T08:14:04;5.20;;;4.18;;
67867;SDS011;54672;46.096;14.470;2023-05-07T08:16:30;4.95;;;4.00;;
67867;SDS011;54672;46.096;14.470;2023-05-07T08:18:55;6.20;;;4.07;;
67867;SDS011;54672;46.096;14.470;2023-05-07T08:21:21;5.32;;;4.38;;
67867;SDS011;54672;46.096;14.470;2023-05-07T08:23:47;5.75;;;4.13;;
67867;SDS011;54672;46.096;14.470;2023-05-07T08:26:13;5.22;;;4.22;;
67867;SDS011;54672;46.096;14.470;2023-05-07T08:28:38;4.85;;;4.00;;
67867;SDS011;54672;46.096;14.470;2023-05-07T08:31:04;5.43;;;3.90;;
67867;SDS011;54672;46.096;14.470;2023-05-07T08:33:30;7.15;;;3.40;;
67867;SDS011;54672;46.096;14.470;2023-05-07T08:35:56;4.28;;;3.40;;
67867;SDS011;54672;46.096;14.470;2023-05-07T08:38:21;4.28;;;3.63;;
67867;SDS011;54672;46.096;14.470;2023-05-07T08:40:46;7.28;;;3.60;;
67867;SDS011;54672;46.096;14.470;2023-05-07T08:43:13;4.75;;;3.40;;
67867;SDS011;54672;46.096;14.470;2023-05-07T08:45:40;8.02;;;3.97;;
67867;SDS011;54672;46.096;14.470;2023-05-07T08:48:12;6.63;;;4.30;;
67867;SDS011;54672;46.096;14.470;2023-05-07T08:50:40;4.78;;;3.85;;
67867;SDS011;54672;46.096;14.470;2023-05-07T08:53:05;5.30;;;3.42;;
67867;SDS011;54672;46.096;14.470;2023-05-07T08:55:31;4.68;;;3.60;;
67867;SDS011;54672;46.096;14.470;2023-05-07T08:57:58;4.43;;;3.38;;
67867;SDS011;54672;46.096;14.470;2023-05-07T09:00:23;4.82;;;3.60;;
67867;SDS011;54672;46.096;14.470;2023-05-07T09:02:49;5.93;;;4.07;;
67867;SDS011;54672;46.096;14.470;2023-05-07T09:05:14;5.75;;;3.97;;
67867;SDS011;54672;46.096;14.470;2023-05-07T09:07:40;5.85;;;3.88;;
67867;SDS011;54672;46.096;14.470;2023-05-07T09:10:06;7.63;;;4.35;;
67867;SDS011;54672;46.096;14.470;2023-05-07T09:12:31;5.40;;;4.15;;
67867;SDS011;54672;46.096;14.470;2023-05-07T09:14:58;5.78;;;4.03;;
67867;SDS011;54672;46.096;14.470;2023-05-07T09:17:24;5.28;;;4.10;;
67867;SDS011;54672;46.096;14.470;2023-05-07T09:19:49;6.43;;;4.35;;
67867;SDS011;54672;46.096;14.470;2023-05-07T09:22:15;5.20;;;3.85;;
67867;SDS011;54672;46.096;14.470;2023-05-07T09:24:40;5.45;;;3.95;;
67867;SDS011;54672;46.096;14.470;2023-05-07T09:27:12;4.60;;;3.70;;
67867;SDS011;54672;46.096;14.470;2023-05-07T09:29:38;4.75;;;3.95;;
67867;SDS011;54672;46.096;14.470;2023-05-07T09:32:07;6.13;;;3.90;;
67867;SDS011;54672;46.096;14.470;2023-05-07T09:34:33;6.15;;;4.40;;
67867;SDS011;54672;46.096;14.470;2023-05-07T09:37:03;5.25;;;4.10;;
67867;SDS011;54672;46.096;14.470;2023-05-07T09:42:24;6.43;;;3.90;;
67867;SDS011;54672;46.096;14.470;2023-05-07T09:44:53;7.57;;;4.70;;
67867;SDS011;54672;46.096;14.470;2023-05-07T09:47:19;4.95;;;4.03;;
67867;SDS011;54672;46.096;14.470;2023-05-07T09:49:46;7.70;;;4.55;;
67867;SDS011;54672;46.096;14.470;2023-05-07T09:52:13;7.60;;;4.35;;
67867;SDS011;54672;46.096;14.470;2023-05-07T09:54:39;6.15;;;4.40;;
67867;SDS011;54672;46.096;14.470;2023-05-07T09:57:07;5.88;;;4.30;;
67867;SDS011;54672;46.096;14.470;2023-05-07T09:59:35;9.30;;;4.32;;
67867;SDS011;54672;46.096;14.470;2023-05-07T10:02:03;5.57;;;4.40;;
67867;SDS011;54672;46.096;14.470;2023-05-07T10:04:28;5.25;;;4.40;;
67867;SDS011;54672;46.096;14.470;2023-05-07T10:06:55;5.55;;;4.38;;
67867;SDS011;54672;46.096;14.470;2023-05-07T10:09:20;6.55;;;4.20;;
67867;SDS011;54672;46.096;14.470;2023-05-07T10:11:48;6.15;;;4.45;;
67867;SDS011;54672;46.096;14.470;2023-05-07T10:14:14;7.13;;;3.90;;
67867;SDS011;54672;46.096;14.470;2023-05-07T10:16:39;4.78;;;3.72;;
67867;SDS011;54672;46.096;14.470;2023-05-07T10:19:06;5.15;;;3.60;;
67867;SDS011;54672;46.096;14.470;2023-05-07T10:21:38;5.60;;;4.63;;
67867;SDS011;54672;46.096;14.470;2023-05-07T10:24:10;6.72;;;4.22;;
67867;SDS011;54672;46.096;14.470;2023-05-07T10:26:42;9.30;;;4.60;;
67867;SDS011;54672;46.096;14.470;2023-05-07T10:29:12;6.78;;;4.47;;
67867;SDS011;54672;46.096;14.470;2023-05-07T10:34:15;5.97;;;4.15;;
67867;SDS011;54672;46.096;14.470;2023-05-07T10:36:43;6.68;;;4.18;;
67867;SDS011;54672;46.096;14.470;2023-05-07T10:39:09;4.93;;;4.10;;
67867;SDS011;54672;46.096;14.470;2023-05-07T10:41:35;5.25;;;4.20;;
67867;SDS011;54672;46.096;14.470;2023-05-07T10:44:01;5.60;;;4.18;;
67867;SDS011;54672;46.096;14.470;2023-05-07T10:46:27;7.60;;;3.85;;
67867;SDS011;54672;46.096;14.470;2023-05-07T10:51:27;4.57;;;3.83;;
67867;SDS011;54672;46.096;14.470;2023-05-07T10:56:49;4.63;;;3.50;;
67867;SDS011;54672;46.096;14.470;2023-05-07T11:04:19;8.10;;;3.70;;
67867;SDS011;54672;46.096;14.470;2023-05-07T11:12:16;6.45;;;3.97;;
67867;SDS011;54672;46.096;14.470;2023-05-07T11:17:07;5.03;;;3.72;;
67867;SDS011;54672;46.096;14.470;2023-05-07T11:19:53;4.97;;;3.75;;
67867;SDS011;54672;46.096;14.470;2023-05-07T11:25:05;4.32;;;3.45;;
67867;SDS011;54672;46.096;14.470;2023-05-07T11:27:31;8.02;;;3.83;;
67867;SDS011;54672;46.096;14.470;2023-05-07T11:29:57;5.25;;;3.55;;
67867;SDS011;54672;46.096;14.470;2023-05-07T11:32:30;3.75;;;3.40;;
67867;SDS011;54672;46.096;14.470;2023-05-07T11:34:57;5.30;;;3.40;;
67867;SDS011;54672;46.096;14.470;2023-05-07T11:37:25;4.10;;;3.20;;
67867;SDS011;54672;46.096;14.470;2023-05-07T11:40:02;4.55;;;3.30;;
67867;SDS011;54672;46.096;14.470;2023-05-07T11:42:32;4.75;;;3.33;;
67867;SDS011;54672;46.096;14.470;2023-05-07T11:44:59;4.22;;;3.30;;
67867;SDS011;54672;46.096;14.470;2023-05-07T11:47:25;3.33;;;2.88;;
67867;SDS011;54672;46.096;14.470;2023-05-07T11:49:54;3.55;;;3.17;;
67867;SDS011;54672;46.096;14.470;2023-05-07T11:52:21;3.45;;;2.90;;
67867;SDS011;54672;46.096;14.470;2023-05-07T11:54:48;5.63;;;3.30;;
67867;SDS011;54672;46.096;14.470;2023-05-07T11:57:21;5.40;;;3.25;;
67867;SDS011;54672;46.096;14.470;2023-05-07T11:59:52;3.33;;;3.03;;
67867;SDS011;54672;46.096;14.470;2023-05-07T12:02:18;5.47;;;3.15;;
67867;SDS011;54672;46.096;14.470;2023-05-07T12:04:44;4.05;;;3.20;;
67867;SDS011;54672;46.096;14.470;2023-05-07T12:07:15;4.68;;;3.20;;
67867;SDS011;54672;46.096;14.470;2023-05-07T12:09:42;3.78;;;3.25;;
67867;SDS011;54672;46.096;14.470;2023-05-07T12:12:07;3.95;;;3.28;;
67867;SDS011;54672;46.096;14.470;2023-05-07T12:14:37;6.35;;;3.08;;
67867;SDS011;54672;46.096;14.470;2023-05-07T12:17:06;3.92;;;2.97;;
67867;SDS011;54672;46.096;14.470;2023-05-07T12:19:33;4.40;;;3.30;;
67867;SDS011;54672;46.096;14.470;2023-05-07T12:21:59;4.28;;;3.20;;
67867;SDS011;54672;46.096;14.470;2023-05-07T12:24:26;3.42;;;2.70;;
67867;SDS011;54672;46.096;14.470;2023-05-07T12:26:51;4.13;;;3.17;;
67867;SDS011;54672;46.096;14.470;2023-05-07T12:29:17;5.72;;;3.80;;
67867;SDS011;54672;46.096;14.470;2023-05-07T12:31:46;5.40;;;3.30;;
67867;SDS011;54672;46.096;14.470;2023-05-07T12:34:12;3.75;;;3.28;;
67867;SDS011;54672;46.096;14.470;2023-05-07T12:36:37;4.25;;;3.45;;
67867;SDS011;54672;46.096;14.470;2023-05-07T12:39:05;7.57;;;3.20;;
67867;SDS011;54672;46.096;14.470;2023-05-07T12:41:34;3.55;;;3.00;;
67867;SDS011;54672;46.096;14.470;2023-05-07T12:44:03;3.78;;;2.90;;
67867;SDS011;54672;46.096;14.470;2023-05-07T12:46:30;4.00;;;2.42;;
67867;SDS011;54672;46.096;14.470;2023-05-07T12:48:55;3.45;;;2.75;;
67867;SDS011;54672;46.096;14.470;2023-05-07T12:51:20;4.07;;;2.67;;
67867;SDS011;54672;46.096;14.470;2023-05-07T12:53:46;3.47;;;2.90;;
67867;SDS011;54672;46.096;14.470;2023-05-07T12:56:11;3.03;;;2.63;;
67867;SDS011;54672;46.096;14.470;2023-05-07T12:58:36;7.03;;;2.90;;
67867;SDS011;54672;46.096;14.470;2023-05-07T13:01:05;3.42;;;2.90;;
67867;SDS011;54672;46.096;14.470;2023-05-07T13:03:33;4.05;;;3.00;;
67867;SDS011;54672;46.096;14.470;2023-05-07T13:06:07;3.10;;;2.50;;
67867;SDS011;54672;46.096;14.470;2023-05-07T13:08:38;3.90;;;3.20;;
67867;SDS011;54672;46.096;14.470;2023-05-07T13:11:06;3.95;;;2.95;;
67867;SDS011;54672;46.096;14.470;2023-05-07T13:13:33;3.85;;;2.70;;
67867;SDS011;54672;46.096;14.470;2023-05-07T13:16:00;3.28;;;2.50;;
67867;SDS011;54672;46.096;14.470;2023-05-07T13:18:28;3.53;;;2.72;;
67867;SDS011;54672;46.096;14.470;2023-05-07T13:20:54;3.53;;;3.00;;
67867;SDS011;54672;46.096;14.470;2023-05-07T13:23:20;5.80;;;4.88;;
67867;SDS011;54672;46.096;14.470;2023-05-07T13:25:45;4.68;;;3.10;;
67867;SDS011;54672;46.096;14.470;2023-05-07T13:28:11;7.28;;;4.25;;
67867;SDS011;54672;46.096;14.470;2023-05-07T13:30:37;5.55;;;3.80;;
67867;SDS011;54672;46.096;14.470;2023-05-07T13:33:02;7.97;;;5.43;;
67867;SDS011;54672;46.096;14.470;2023-05-07T13:35:27;10.05;;;5.68;;
67867;SDS011;54672;46.096;14.470;2023-05-07T13:37:53;8.80;;;5.63;;
67867;SDS011;54672;46.096;14.470;2023-05-07T13:40:19;4.88;;;3.75;;
67867;SDS011;54672;46.096;14.470;2023-05-07T13:42:46;4.60;;;3.60;;
67867;SDS011;54672;46.096;14.470;2023-05-07T13:45:12;5.00;;;3.63;;
67867;SDS011;54672;46.096;14.470;2023-05-07T13:47:39;4.80;;;3.78;;
67867;SDS011;54672;46.096;14.470;2023-05-07T13:50:05;5.05;;;3.90;;
67867;SDS011;54672;46.096;14.470;2023-05-07T13:52:32;5.00;;;3.78;;
67867;SDS011;54672;46.096;14.470;2023-05-07T13:54:57;4.82;;;4.00;;
67867;SDS011;54672;46.096;14.470;2023-05-07T13:57:23;5.80;;;3.78;;
67867;SDS011;54672;46.096;14.470;2023-05-07T13:59:49;6.28;;;4.28;;
67867;SDS011;54672;46.096;14.470;2023-05-07T14:02:14;4.57;;;3.88;;
67867;SDS011;54672;46.096;14.470;2023-05-07T14:04:40;4.90;;;3.80;;
67867;SDS011;54672;46.096;14.470;2023-05-07T14:07:05;5.50;;;3.95;;
67867;SDS011;54672;46.096;14.470;2023-05-07T14:09:30;4.93;;;3.47;;
67867;SDS011;54672;46.096;14.470;2023-05-07T14:11:56;8.00;;;3.55;;
67867;SDS011;54672;46.096;14.470;2023-05-07T14:14:21;5.57;;;3.42;;
67867;SDS011;54672;46.096;14.470;2023-05-07T14:16:47;9.13;;;3.88;;
67867;SDS011;54672;46.096;14.470;2023-05-07T14:19:12;5.22;;;3.22;;
67867;SDS011;54672;46.096;14.470;2023-05-07T14:21:38;5.65;;;3.20;;
67867;SDS011;54672;46.096;14.470;2023-05-07T14:24:03;4.68;;;3.33;;
67867;SDS011;54672;46.096;14.470;2023-05-07T14:26:30;3.08;;;2.45;;
67867;SDS011;54672;46.096;14.470;2023-05-07T14:28:56;4.70;;;3.20;;
67867;SDS011;54672;46.096;14.470;2023-05-07T14:31:23;5.15;;;3.67;;
67867;SDS011;54672;46.096;14.470;2023-05-07T14:33:49;7.75;;;3.90;;
67867;SDS011;54672;46.096;14.470;2023-05-07T14:36:18;4.43;;;3.08;;
67867;SDS011;54672;46.096;14.470;2023-05-07T14:38:47;4.82;;;3.55;;
67867;SDS011;54672;46.096;14.470;2023-05-07T14:41:13;4.90;;;3.90;;
67867;SDS011;54672;46.096;14.470;2023-05-07T14:43:39;6.32;;;4.30;;
67867;SDS011;54672;46.096;14.470;2023-05-07T14:46:05;5.97;;;4.25;;
67867;SDS011;54672;46.096;14.470;2023-05-07T14:48:30;6.25;;;3.85;;
67867;SDS011;54672;46.096;14.470;2023-05-07T14:50:56;6.35;;;4.22;;